sensor_id;sensor_type;location;lat;lon;timestamp;P1;durP1;ratioP1;P2;durP2;ratioP2
86084;SDS011;76694;53.530;50.016;2024-03-08T00:00:24;17.50;;;2.65;;
86084;SDS011;76694;53.530;50.016;2024-03-08T00:05:27;1.58;;;1.13;;
86084;SDS011;76694;53.530;50.016;2024-03-08T00:10:30;0.30;;;0.30;;
86084;SDS011;76694;53.530;50.016;2024-03-08T00:15:32;0.57;;;0.55;;
86084;SDS011;76694;53.530;50.016;2024-03-08T00:20:35;1.45;;;1.35;;
86084;SDS011;76694;53.530;50.016;2024-03-08T00:25:37;2.08;;;1.92;;
86084;SDS011;76694;53.530;50.016;2024-03-08T00:30:40;2.03;;;1.05;;
86084;SDS011;76694;53.530;50.016;2024-03-08T00:35:44;1.17;;;1.17;;
86084;SDS011;76694;53.530;50.016;2024-03-08T00:40:47;2.83;;;1.83;;
86084;SDS011;76694;53.530;50.016;2024-03-08T00:45:49;2.45;;;2.25;;
86084;SDS011;76694;53.530;50.016;2024-03-08T00:50:52;1.17;;;1.08;;
86084;SDS011;76694;53.530;50.016;2024-03-08T00:55:54;4.80;;;3.05;;
86084;SDS011;76694;53.530;50.016;2024-03-08T01:00:58;5.47;;;2.95;;
86084;SDS011;76694;53.530;50.016;2024-03-08T01:06:01;1.15;;;1.10;;
86084;SDS011;76694;53.530;50.016;2024-03-08T01:11:04;0.88;;;0.88;;
86084;SDS011;76694;53.530;50.016;2024-03-08T01:16:07;5.00;;;1.48;;
86084;SDS011;76694;53.530;50.016;2024-03-08T01:21:10;0.60;;;0.60;;
86084;SDS011;76694;53.530;50.016;2024-03-08T01:26:12;1.10;;;1.00;;
86084;SDS011;76694;53.530;50.016;2024-03-08T01:31:16;1.45;;;1.33;;
86084;SDS011;76694;53.530;50.016;2024-03-08T01:36:19;2.15;;;1.83;;
86084;SDS011;76694;53.530;50.016;2024-03-08T01:41:22;10.88;;;3.38;;
86084;SDS011;76694;53.530;50.016;2024-03-08T01:46:24;0.52;;;0.52;;
86084;SDS011;76694;53.530;50.016;2024-03-08T01:51:30;1.10;;;0.90;;
86084;SDS011;76694;53.530;50.016;2024-03-08T01:56:33;2.97;;;1.90;;
86084;SDS011;76694;53.530;50.016;2024-03-08T02:01:35;2.17;;;0.68;;
86084;SDS011;76694;53.530;50.016;2024-03-08T02:06:38;0.65;;;0.65;;
86084;SDS011;76694;53.530;50.016;2024-03-08T02:11:41;1.45;;;1.33;;
86084;SDS011;76694;53.530;50.016;2024-03-08T02:16:43;1.17;;;0.63;;
86084;SDS011;76694;53.530;50.016;2024-03-08T02:21:46;1.27;;;0.88;;
86084;SDS011;76694;53.530;50.016;2024-03-08T02:26:49;1.15;;;1.08;;
86084;SDS011;76694;53.530;50.016;2024-03-08T02:31:51;1.17;;;0.63;;
86084;SDS011;76694;53.530;50.016;2024-03-08T02:36:54;11.02;;;1.42;;
86084;SDS011;76694;53.530;50.016;2024-03-08T02:41:58;8.02;;;4.53;;
86084;SDS011;76694;53.530;50.016;2024-03-08T02:47:01;1.90;;;1.17;;
86084;SDS011;76694;53.530;50.016;2024-03-08T02:52:04;0.52;;;0.52;;
86084;SDS011;76694;53.530;50.016;2024-03-08T02:57:07;0.70;;;0.70;;
86084;SDS011;76694;53.530;50.016;2024-03-08T03:02:09;1.48;;;1.25;;
86084;SDS011;76694;53.530;50.016;2024-03-08T03:07:12;6.03;;;1.65;;
86084;SDS011;76694;53.530;50.016;2024-03-08T03:12:14;0.45;;;0.45;;
86084;SDS011;76694;53.530;50.016;2024-03-08T03:17:17;0.50;;;0.50;;
86084;SDS011;76694;53.530;50.016;2024-03-08T03:22:19;1.50;;;1.08;;
86084;SDS011;76694;53.530;50.016;2024-03-08T03:27:22;1.55;;;1.42;;
86084;SDS011;76694;53.530;50.016;2024-03-08T03:32:25;2.72;;;0.90;;
86084;SDS011;76694;53.530;50.016;2024-03-08T03:37:28;5.97;;;2.30;;
86084;SDS011;76694;53.530;50.016;2024-03-08T03:42:31;1.42;;;1.33;;
86084;SDS011;76694;53.530;50.016;2024-03-08T03:47:33;1.35;;;1.17;;
86084;SDS011;76694;53.530;50.016;2024-03-08T03:52:36;4.97;;;2.67;;
86084;SDS011;76694;53.530;50.016;2024-03-08T03:57:39;2.35;;;2.00;;
86084;SDS011;76694;53.530;50.016;2024-03-08T04:02:42;2.28;;;1.23;;
86084;SDS011;76694;53.530;50.016;2024-03-08T04:07:45;0.13;;;0.13;;
86084;SDS011;76694;53.530;50.016;2024-03-08T04:12:47;0.25;;;0.25;;
86084;SDS011;76694;53.530;50.016;2024-03-08T04:17:50;1.02;;;0.73;;
86084;SDS011;76694;53.530;50.016;2024-03-08T04:22:53;0.17;;;0.17;;
86084;SDS011;76694;53.530;50.016;2024-03-08T04:27:55;3.05;;;1.10;;
86084;SDS011;76694;53.530;50.016;2024-03-08T04:32:58;3.15;;;1.17;;
86084;SDS011;76694;53.530;50.016;2024-03-08T04:38:01;0.75;;;0.75;;
86084;SDS011;76694;53.530;50.016;2024-03-08T04:43:07;2.03;;;1.65;;
86084;SDS011;76694;53.530;50.016;2024-03-08T04:48:10;1.45;;;0.85;;
86084;SDS011;76694;53.530;50.016;2024-03-08T04:53:13;0.32;;;0.32;;
86084;SDS011;76694;53.530;50.016;2024-03-08T04:58:16;0.40;;;0.40;;
86084;SDS011;76694;53.530;50.016;2024-03-08T05:03:19;3.53;;;1.30;;
86084;SDS011;76694;53.530;50.016;2024-03-08T05:08:23;0.60;;;0.60;;
86084;SDS011;76694;53.530;50.016;2024-03-08T05:13:25;1.77;;;1.25;;
86084;SDS011;76694;53.530;50.016;2024-03-08T05:18:28;2.85;;;2.25;;
86084;SDS011;76694;53.530;50.016;2024-03-08T05:23:33;1.52;;;1.40;;
86084;SDS011;76694;53.530;50.016;2024-03-08T05:28:36;5.78;;;2.13;;
86084;SDS011;76694;53.530;50.016;2024-03-08T05:33:39;0.40;;;0.25;;
86084;SDS011;76694;53.530;50.016;2024-03-08T05:38:44;6.57;;;2.63;;
86084;SDS011;76694;53.530;50.016;2024-03-08T05:43:47;0.88;;;0.88;;
86084;SDS011;76694;53.530;50.016;2024-03-08T05:48:50;7.90;;;3.65;;
86084;SDS011;76694;53.530;50.016;2024-03-08T05:53:53;22.50;;;6.90;;
86084;SDS011;76694;53.530;50.016;2024-03-08T06:04:01;11.23;;;5.20;;
86084;SDS011;76694;53.530;50.016;2024-03-08T06:09:05;4.53;;;2.22;;
86084;SDS011;76694;53.530;50.016;2024-03-08T06:14:13;9.05;;;2.85;;
86084;SDS011;76694;53.530;50.016;2024-03-08T06:19:20;6.80;;;2.92;;
86084;SDS011;76694;53.530;50.016;2024-03-08T06:24:22;4.55;;;2.58;;
86084;SDS011;76694;53.530;50.016;2024-03-08T06:29:25;4.35;;;2.30;;
86084;SDS011;76694;53.530;50.016;2024-03-08T06:34:28;0.45;;;0.32;;
86084;SDS011;76694;53.530;50.016;2024-03-08T06:39:31;0.45;;;0.30;;
86084;SDS011;76694;53.530;50.016;2024-03-08T06:44:34;1.33;;;1.17;;
86084;SDS011;76694;53.530;50.016;2024-03-08T06:49:37;4.10;;;1.90;;
86084;SDS011;76694;53.530;50.016;2024-03-08T06:54:40;2.47;;;1.02;;
86084;SDS011;76694;53.530;50.016;2024-03-08T06:59:43;1.25;;;0.75;;
86084;SDS011;76694;53.530;50.016;2024-03-08T07:04:47;5.40;;;2.28;;
86084;SDS011;76694;53.530;50.016;2024-03-08T07:09:49;0.60;;;0.60;;
86084;SDS011;76694;53.530;50.016;2024-03-08T07:14:52;4.43;;;0.70;;
86084;SDS011;76694;53.530;50.016;2024-03-08T07:19:55;0.60;;;0.57;;
86084;SDS011;76694;53.530;50.016;2024-03-08T07:25:01;3.83;;;2.03;;
86084;SDS011;76694;53.530;50.016;2024-03-08T07:30:11;2.13;;;1.70;;
86084;SDS011;76694;53.530;50.016;2024-03-08T07:35:17;1.42;;;1.33;;
86084;SDS011;76694;53.530;50.016;2024-03-08T07:40:21;1.48;;;0.98;;
86084;SDS011;76694;53.530;50.016;2024-03-08T07:45:26;4.82;;;2.00;;
86084;SDS011;76694;53.530;50.016;2024-03-08T07:50:29;1.60;;;0.93;;
86084;SDS011;76694;53.530;50.016;2024-03-08T07:55:33;0.38;;;0.38;;
86084;SDS011;76694;53.530;50.016;2024-03-08T08:00:38;4.57;;;1.52;;
86084;SDS011;76694;53.530;50.016;2024-03-08T08:05:41;3.08;;;1.38;;
86084;SDS011;76694;53.530;50.016;2024-03-08T08:10:45;4.53;;;1.05;;
86084;SDS011;76694;53.530;50.016;2024-03-08T08:15:50;3.35;;;1.92;;
86084;SDS011;76694;53.530;50.016;2024-03-08T08:20:53;3.47;;;1.38;;
86084;SDS011;76694;53.530;50.016;2024-03-08T08:25:57;3.80;;;2.13;;
86084;SDS011;76694;53.530;50.016;2024-03-08T08:30:59;2.92;;;1.20;;
86084;SDS011;76694;53.530;50.016;2024-03-08T08:36:03;4.38;;;2.13;;
86084;SDS011;76694;53.530;50.016;2024-03-08T08:41:06;4.70;;;2.03;;
86084;SDS011;76694;53.530;50.016;2024-03-08T08:46:12;5.10;;;1.65;;
86084;SDS011;76694;53.530;50.016;2024-03-08T08:51:16;1.48;;;1.00;;
86084;SDS011;76694;53.530;50.016;2024-03-08T08:56:20;6.50;;;1.85;;
86084;SDS011;76694;53.530;50.016;2024-03-08T09:01:24;4.22;;;2.00;;
86084;SDS011;76694;53.530;50.016;2024-03-08T09:06:28;5.15;;;2.03;;
86084;SDS011;76694;53.530;50.016;2024-03-08T09:11:33;5.70;;;1.95;;
86084;SDS011;76694;53.530;50.016;2024-03-08T09:16:36;7.25;;;1.60;;
86084;SDS011;76694;53.530;50.016;2024-03-08T09:21:39;6.00;;;2.38;;
86084;SDS011;76694;53.530;50.016;2024-03-08T09:26:42;6.32;;;2.42;;
86084;SDS011;76694;53.530;50.016;2024-03-08T09:31:45;3.88;;;2.17;;
86084;SDS011;76694;53.530;50.016;2024-03-08T09:36:48;1.33;;;0.70;;
86084;SDS011;76694;53.530;50.016;2024-03-08T09:41:51;1.65;;;1.27;;
86084;SDS011;76694;53.530;50.016;2024-03-08T09:46:53;4.07;;;1.27;;
86084;SDS011;76694;53.530;50.016;2024-03-08T09:57:00;2.85;;;1.75;;
86084;SDS011;76694;53.530;50.016;2024-03-08T10:02:06;1.95;;;0.85;;
86084;SDS011;76694;53.530;50.016;2024-03-08T10:07:17;2.80;;;1.48;;
86084;SDS011;76694;53.530;50.016;2024-03-08T10:12:19;3.25;;;1.00;;
86084;SDS011;76694;53.530;50.016;2024-03-08T10:17:23;4.05;;;1.60;;
86084;SDS011;76694;53.530;50.016;2024-03-08T10:22:25;3.28;;;1.38;;
86084;SDS011;76694;53.530;50.016;2024-03-08T10:27:31;3.08;;;1.58;;
86084;SDS011;76694;53.530;50.016;2024-03-08T10:32:34;3.55;;;1.73;;
86084;SDS011;76694;53.530;50.016;2024-03-08T10:37:44;2.45;;;1.40;;
86084;SDS011;76694;53.530;50.016;2024-03-08T10:42:53;3.95;;;1.85;;
86084;SDS011;76694;53.530;50.016;2024-03-08T10:53:29;2.05;;;0.80;;
86084;SDS011;76694;53.530;50.016;2024-03-08T10:58:34;3.35;;;1.35;;
86084;SDS011;76694;53.530;50.016;2024-03-08T11:08:43;3.17;;;1.50;;
86084;SDS011;76694;53.530;50.016;2024-03-08T11:13:48;4.05;;;2.17;;
86084;SDS011;76694;53.530;50.016;2024-03-08T11:18:54;2.95;;;1.25;;
86084;SDS011;76694;53.530;50.016;2024-03-08T11:24:07;3.63;;;1.80;;
86084;SDS011;76694;53.530;50.016;2024-03-08T11:34:37;2.67;;;1.80;;
86084;SDS011;76694;53.530;50.016;2024-03-08T11:39:48;3.50;;;1.50;;
86084;SDS011;76694;53.530;50.016;2024-03-08T11:44:54;5.38;;;2.13;;
86084;SDS011;76694;53.530;50.016;2024-03-08T11:49:57;7.43;;;2.42;;
86084;SDS011;76694;53.530;50.016;2024-03-08T11:55:01;3.88;;;2.25;;
86084;SDS011;76694;53.530;50.016;2024-03-08T12:00:05;5.53;;;2.60;;
86084;SDS011;76694;53.530;50.016;2024-03-08T12:05:08;4.90;;;2.10;;
86084;SDS011;76694;53.530;50.016;2024-03-08T12:10:19;3.33;;;1.45;;
86084;SDS011;76694;53.530;50.016;2024-03-08T12:15:23;4.28;;;1.92;;
86084;SDS011;76694;53.530;50.016;2024-03-08T12:20:28;2.85;;;1.77;;
86084;SDS011;76694;53.530;50.016;2024-03-08T12:25:32;5.72;;;2.47;;
86084;SDS011;76694;53.530;50.016;2024-03-08T12:30:48;5.78;;;2.35;;
86084;SDS011;76694;53.530;50.016;2024-03-08T12:35:54;5.03;;;2.90;;
86084;SDS011;76694;53.530;50.016;2024-03-08T12:41:00;3.95;;;2.10;;
86084;SDS011;76694;53.530;50.016;2024-03-08T12:46:03;4.93;;;2.22;;
86084;SDS011;76694;53.530;50.016;2024-03-08T12:51:08;4.70;;;1.63;;
86084;SDS011;76694;53.530;50.016;2024-03-08T12:56:14;5.38;;;2.08;;
86084;SDS011;76694;53.530;50.016;2024-03-08T13:01:30;1.02;;;0.88;;
86084;SDS011;76694;53.530;50.016;2024-03-08T13:06:34;6.70;;;1.50;;
86084;SDS011;76694;53.530;50.016;2024-03-08T13:11:36;4.35;;;1.88;;
86084;SDS011;76694;53.530;50.016;2024-03-08T13:16:39;6.00;;;2.30;;
86084;SDS011;76694;53.530;50.016;2024-03-08T13:21:42;5.03;;;1.40;;
86084;SDS011;76694;53.530;50.016;2024-03-08T13:26:45;3.50;;;1.80;;
86084;SDS011;76694;53.530;50.016;2024-03-08T13:31:48;5.72;;;1.90;;
86084;SDS011;76694;53.530;50.016;2024-03-08T13:36:53;5.53;;;2.45;;
86084;SDS011;76694;53.530;50.016;2024-03-08T13:42:01;4.32;;;1.90;;
86084;SDS011;76694;53.530;50.016;2024-03-08T13:47:07;2.78;;;1.73;;
86084;SDS011;76694;53.530;50.016;2024-03-08T13:52:10;3.67;;;1.65;;
86084;SDS011;76694;53.530;50.016;2024-03-08T13:57:14;6.95;;;1.95;;
86084;SDS011;76694;53.530;50.016;2024-03-08T14:07:37;4.82;;;2.40;;
86084;SDS011;76694;53.530;50.016;2024-03-08T14:12:40;5.70;;;2.30;;
86084;SDS011;76694;53.530;50.016;2024-03-08T14:17:44;6.60;;;2.78;;
86084;SDS011;76694;53.530;50.016;2024-03-08T14:22:48;3.75;;;2.45;;
86084;SDS011;76694;53.530;50.016;2024-03-08T14:27:53;4.68;;;2.15;;
86084;SDS011;76694;53.530;50.016;2024-03-08T14:33:02;5.03;;;2.35;;
86084;SDS011;76694;53.530;50.016;2024-03-08T14:38:07;4.15;;;2.33;;
86084;SDS011;76694;53.530;50.016;2024-03-08T14:43:13;2.50;;;1.42;;
86084;SDS011;76694;53.530;50.016;2024-03-08T14:48:16;3.35;;;1.95;;
86084;SDS011;76694;53.530;50.016;2024-03-08T14:53:19;3.75;;;1.88;;
86084;SDS011;76694;53.530;50.016;2024-03-08T14:58:21;4.47;;;2.03;;
86084;SDS011;76694;53.530;50.016;2024-03-08T15:03:26;6.45;;;2.00;;
86084;SDS011;76694;53.530;50.016;2024-03-08T15:08:30;4.10;;;1.80;;
86084;SDS011;76694;53.530;50.016;2024-03-08T15:13:34;5.32;;;2.75;;
86084;SDS011;76694;53.530;50.016;2024-03-08T15:18:48;5.90;;;2.72;;
86084;SDS011;76694;53.530;50.016;2024-03-08T15:23:52;7.45;;;3.33;;
86084;SDS011;76694;53.530;50.016;2024-03-08T15:28:56;5.55;;;1.63;;
86084;SDS011;76694;53.530;50.016;2024-03-08T15:33:59;6.90;;;2.17;;
86084;SDS011;76694;53.530;50.016;2024-03-08T15:44:11;5.47;;;2.58;;
86084;SDS011;76694;53.530;50.016;2024-03-08T15:49:15;5.13;;;2.50;;
86084;SDS011;76694;53.530;50.016;2024-03-08T15:54:20;7.80;;;2.97;;
86084;SDS011;76694;53.530;50.016;2024-03-08T15:59:23;7.25;;;2.35;;
86084;SDS011;76694;53.530;50.016;2024-03-08T16:04:28;8.48;;;2.78;;
86084;SDS011;76694;53.530;50.016;2024-03-08T16:09:31;5.97;;;2.97;;
86084;SDS011;76694;53.530;50.016;2024-03-08T16:14:37;6.75;;;3.72;;
86084;SDS011;76694;53.530;50.016;2024-03-08T16:19:40;9.00;;;3.42;;
86084;SDS011;76694;53.530;50.016;2024-03-08T16:24:43;10.15;;;3.67;;
86084;SDS011;76694;53.530;50.016;2024-03-08T16:29:46;6.40;;;3.67;;
86084;SDS011;76694;53.530;50.016;2024-03-08T16:34:49;9.30;;;3.92;;
86084;SDS011;76694;53.530;50.016;2024-03-08T16:39:53;7.82;;;2.95;;
86084;SDS011;76694;53.530;50.016;2024-03-08T16:44:56;6.78;;;2.50;;
86084;SDS011;76694;53.530;50.016;2024-03-08T16:49:58;7.40;;;3.38;;
86084;SDS011;76694;53.530;50.016;2024-03-08T16:55:02;15.27;;;3.15;;
86084;SDS011;76694;53.530;50.016;2024-03-08T17:00:08;7.47;;;3.55;;
86084;SDS011;76694;53.530;50.016;2024-03-08T17:05:15;9.68;;;3.38;;
86084;SDS011;76694;53.530;50.016;2024-03-08T17:10:18;7.55;;;3.88;;
86084;SDS011;76694;53.530;50.016;2024-03-08T17:15:22;8.48;;;4.07;;
86084;SDS011;76694;53.530;50.016;2024-03-08T17:20:25;6.38;;;3.80;;
86084;SDS011;76694;53.530;50.016;2024-03-08T17:25:29;7.55;;;3.30;;
86084;SDS011;76694;53.530;50.016;2024-03-08T17:30:32;7.65;;;4.28;;
86084;SDS011;76694;53.530;50.016;2024-03-08T17:35:37;9.50;;;3.75;;
86084;SDS011;76694;53.530;50.016;2024-03-08T17:40:42;6.50;;;3.55;;
86084;SDS011;76694;53.530;50.016;2024-03-08T17:45:45;7.50;;;3.33;;
86084;SDS011;76694;53.530;50.016;2024-03-08T17:50:48;8.55;;;4.13;;
86084;SDS011;76694;53.530;50.016;2024-03-08T17:55:51;5.38;;;2.53;;
86084;SDS011;76694;53.530;50.016;2024-03-08T18:00:53;7.40;;;3.03;;
86084;SDS011;76694;53.530;50.016;2024-03-08T18:05:56;9.20;;;3.58;;
86084;SDS011;76694;53.530;50.016;2024-03-08T18:10:59;6.18;;;2.75;;
86084;SDS011;76694;53.530;50.016;2024-03-08T18:16:02;8.93;;;4.13;;
86084;SDS011;76694;53.530;50.016;2024-03-08T18:21:05;11.45;;;4.35;;
86084;SDS011;76694;53.530;50.016;2024-03-08T18:26:08;6.53;;;2.25;;
86084;SDS011;76694;53.530;50.016;2024-03-08T18:31:11;5.88;;;2.72;;
86084;SDS011;76694;53.530;50.016;2024-03-08T18:36:15;5.63;;;3.30;;
86084;SDS011;76694;53.530;50.016;2024-03-08T18:41:20;5.45;;;3.10;;
86084;SDS011;76694;53.530;50.016;2024-03-08T18:46:25;7.03;;;2.92;;
86084;SDS011;76694;53.530;50.016;2024-03-08T18:51:34;4.28;;;2.45;;
86084;SDS011;76694;53.530;50.016;2024-03-08T18:56:37;12.75;;;5.10;;
86084;SDS011;76694;53.530;50.016;2024-03-08T19:01:41;4.80;;;3.53;;
86084;SDS011;76694;53.530;50.016;2024-03-08T19:06:49;11.98;;;6.03;;
86084;SDS011;76694;53.530;50.016;2024-03-08T19:11:53;3.47;;;2.10;;
86084;SDS011;76694;53.530;50.016;2024-03-08T19:16:59;6.22;;;2.45;;
86084;SDS011;76694;53.530;50.016;2024-03-08T19:22:01;5.47;;;3.05;;
86084;SDS011;76694;53.530;50.016;2024-03-08T19:27:07;6.50;;;2.33;;
86084;SDS011;76694;53.530;50.016;2024-03-08T19:32:18;4.88;;;2.63;;
86084;SDS011;76694;53.530;50.016;2024-03-08T19:37:22;5.63;;;3.35;;
86084;SDS011;76694;53.530;50.016;2024-03-08T19:42:27;7.55;;;2.97;;
86084;SDS011;76694;53.530;50.016;2024-03-08T19:47:30;6.07;;;3.03;;
86084;SDS011;76694;53.530;50.016;2024-03-08T19:52:33;6.90;;;3.10;;
86084;SDS011;76694;53.530;50.016;2024-03-08T19:57:38;5.53;;;2.45;;
86084;SDS011;76694;53.530;50.016;2024-03-08T20:02:48;6.75;;;2.78;;
86084;SDS011;76694;53.530;50.016;2024-03-08T20:07:51;6.05;;;2.67;;
86084;SDS011;76694;53.530;50.016;2024-03-08T20:12:56;4.38;;;2.55;;
86084;SDS011;76694;53.530;50.016;2024-03-08T20:18:01;3.25;;;2.33;;
86084;SDS011;76694;53.530;50.016;2024-03-08T20:23:04;5.55;;;2.17;;
86084;SDS011;76694;53.530;50.016;2024-03-08T20:28:08;5.53;;;3.33;;
86084;SDS011;76694;53.530;50.016;2024-03-08T20:33:11;4.97;;;2.95;;
86084;SDS011;76694;53.530;50.016;2024-03-08T20:38:14;9.88;;;3.35;;
86084;SDS011;76694;53.530;50.016;2024-03-08T20:43:22;11.23;;;3.90;;
86084;SDS011;76694;53.530;50.016;2024-03-08T20:48:25;4.63;;;2.28;;
86084;SDS011;76694;53.530;50.016;2024-03-08T20:53:30;5.57;;;2.67;;
86084;SDS011;76694;53.530;50.016;2024-03-08T20:58:33;8.30;;;3.38;;
86084;SDS011;76694;53.530;50.016;2024-03-08T21:03:35;3.72;;;1.83;;
86084;SDS011;76694;53.530;50.016;2024-03-08T21:08:40;3.97;;;2.65;;
86084;SDS011;76694;53.530;50.016;2024-03-08T21:13:43;5.32;;;1.55;;
86084;SDS011;76694;53.530;50.016;2024-03-08T21:18:47;5.53;;;2.35;;
86084;SDS011;76694;53.530;50.016;2024-03-08T21:23:50;7.50;;;2.15;;
86084;SDS011;76694;53.530;50.016;2024-03-08T21:28:53;5.15;;;2.63;;
86084;SDS011;76694;53.530;50.016;2024-03-08T21:33:55;5.55;;;2.65;;
86084;SDS011;76694;53.530;50.016;2024-03-08T21:38:58;4.57;;;2.65;;
86084;SDS011;76694;53.530;50.016;2024-03-08T21:44:00;4.55;;;2.42;;
86084;SDS011;76694;53.530;50.016;2024-03-08T21:49:03;4.80;;;2.47;;
86084;SDS011;76694;53.530;50.016;2024-03-08T21:54:05;3.83;;;2.85;;
86084;SDS011;76694;53.530;50.016;2024-03-08T21:59:08;6.50;;;2.97;;
86084;SDS011;76694;53.530;50.016;2024-03-08T22:04:11;4.60;;;2.30;;
86084;SDS011;76694;53.530;50.016;2024-03-08T22:09:14;5.43;;;2.65;;
86084;SDS011;76694;53.530;50.016;2024-03-08T22:14:23;8.27;;;3.13;;
86084;SDS011;76694;53.530;50.016;2024-03-08T22:19:25;6.03;;;2.47;;
86084;SDS011;76694;53.530;50.016;2024-03-08T22:24:28;5.25;;;3.05;;
86084;SDS011;76694;53.530;50.016;2024-03-08T22:29:30;5.45;;;3.72;;
86084;SDS011;76694;53.530;50.016;2024-03-08T22:34:33;7.70;;;3.10;;
86084;SDS011;76694;53.530;50.016;2024-03-08T22:39:36;9.13;;;3.28;;
86084;SDS011;76694;53.530;50.016;2024-03-08T22:44:38;6.90;;;3.33;;
86084;SDS011;76694;53.530;50.016;2024-03-08T22:49:41;9.50;;;3.55;;
86084;SDS011;76694;53.530;50.016;2024-03-08T22:54:44;6.15;;;3.08;;
86084;SDS011;76694;53.530;50.016;2024-03-08T22:59:48;6.68;;;4.30;;
86084;SDS011;76694;53.530;50.016;2024-03-08T23:04:55;5.38;;;3.00;;
86084;SDS011;76694;53.530;50.016;2024-03-08T23:09:59;8.60;;;3.20;;
86084;SDS011;76694;53.530;50.016;2024-03-08T23:15:03;3.45;;;2.45;;
86084;SDS011;76694;53.530;50.016;2024-03-08T23:20:16;8.00;;;2.35;;
86084;SDS011;76694;53.530;50.016;2024-03-08T23:25:21;9.27;;;5.07;;
86084;SDS011;76694;53.530;50.016;2024-03-08T23:30:25;5.70;;;2.90;;
86084;SDS011;76694;53.530;50.016;2024-03-08T23:35:30;3.45;;;3.10;;
86084;SDS011;76694;53.530;50.016;2024-03-08T23:40:33;10.43;;;3.35;;
86084;SDS011;76694;53.530;50.016;2024-03-08T23:45:36;11.70;;;4.10;;
86084;SDS011;76694;53.530;50.016;2024-03-08T23:50:40;2.78;;;1.05;;
86084;SDS011;76694;53.530;50.016;2024-03-08T23:55:43;7.15;;;3.28;;
